sensor_id;sensor_type;location;lat;lon;timestamp;temperature;humidity
34061;DHT22;20336;-33.424;-70.638;2023-02-26T00:01:23;25.40;98.60
34061;DHT22;20336;-33.424;-70.638;2023-02-26T00:03:52;25.20;99.60
34061;DHT22;20336;-33.424;-70.638;2023-02-26T00:06:19;25.10;99.90
34061;DHT22;20336;-33.424;-70.638;2023-02-26T00:08:46;25.00;99.90
34061;DHT22;20336;-33.424;-70.638;2023-02-26T00:11:14;25.00;99.90
34061;DHT22;20336;-33.424;-70.638;2023-02-26T00:13:42;24.90;99.90
34061;DHT22;20336;-33.424;-70.638;2023-02-26T00:18:51;24.90;99.90
34061;DHT22;20336;-33.424;-70.638;2023-02-26T00:21:20;24.80;99.90
34061;DHT22;20336;-33.424;-70.638;2023-02-26T00:23:47;24.70;99.90
34061;DHT22;20336;-33.424;-70.638;2023-02-26T00:26:14;24.60;99.90
34061;DHT22;20336;-33.424;-70.638;2023-02-26T00:28:41;24.50;99.90
34061;DHT22;20336;-33.424;-70.638;2023-02-26T00:31:08;24.50;99.90
34061;DHT22;20336;-33.424;-70.638;2023-02-26T00:33:36;24.40;99.90
34061;DHT22;20336;-33.424;-70.638;2023-02-26T00:36:23;24.30;99.90
34061;DHT22;20336;-33.424;-70.638;2023-02-26T00:41:44;24.20;99.90
34061;DHT22;20336;-33.424;-70.638;2023-02-26T00:44:11;24.00;99.90
34061;DHT22;20336;-33.424;-70.638;2023-02-26T00:46:41;23.90;99.90
34061;DHT22;20336;-33.424;-70.638;2023-02-26T00:52:00;23.70;99.90
34061;DHT22;20336;-33.424;-70.638;2023-02-26T00:54:29;23.70;99.90
34061;DHT22;20336;-33.424;-70.638;2023-02-26T00:56:57;23.60;99.90
34061;DHT22;20336;-33.424;-70.638;2023-02-26T00:59:25;23.50;99.90
34061;DHT22;20336;-33.424;-70.638;2023-02-26T01:01:52;23.40;99.90
34061;DHT22;20336;-33.424;-70.638;2023-02-26T01:04:21;23.30;99.90
34061;DHT22;20336;-33.424;-70.638;2023-02-26T01:06:54;23.10;99.90
34061;DHT22;20336;-33.424;-70.638;2023-02-26T01:11:52;23.00;99.90
34061;DHT22;20336;-33.424;-70.638;2023-02-26T01:14:19;23.00;99.90
34061;DHT22;20336;-33.424;-70.638;2023-02-26T01:22:54;22.90;99.90
34061;DHT22;20336;-33.424;-70.638;2023-02-26T01:28:20;22.90;99.90
34061;DHT22;20336;-33.424;-70.638;2023-02-26T01:30:57;22.90;99.90
34061;DHT22;20336;-33.424;-70.638;2023-02-26T01:33:43;22.80;99.90
34061;DHT22;20336;-33.424;-70.638;2023-02-26T01:36:19;22.60;99.90
34061;DHT22;20336;-33.424;-70.638;2023-02-26T01:39:03;22.60;99.90
34061;DHT22;20336;-33.424;-70.638;2023-02-26T01:41:48;22.60;99.90
34061;DHT22;20336;-33.424;-70.638;2023-02-26T01:44:26;22.50;99.90
34061;DHT22;20336;-33.424;-70.638;2023-02-26T01:49:41;22.20;99.90
34061;DHT22;20336;-33.424;-70.638;2023-02-26T01:55:15;22.10;99.90
34061;DHT22;20336;-33.424;-70.638;2023-02-26T01:57:43;22.00;99.90
34061;DHT22;20336;-33.424;-70.638;2023-02-26T02:00:11;22.00;99.90
34061;DHT22;20336;-33.424;-70.638;2023-02-26T02:02:38;21.90;99.90
34061;DHT22;20336;-33.424;-70.638;2023-02-26T02:05:11;21.90;99.90
34061;DHT22;20336;-33.424;-70.638;2023-02-26T02:07:39;22.00;99.90
34061;DHT22;20336;-33.424;-70.638;2023-02-26T02:10:06;21.80;99.90
34061;DHT22;20336;-33.424;-70.638;2023-02-26T02:12:51;21.70;99.90
34061;DHT22;20336;-33.424;-70.638;2023-02-26T02:20:51;21.70;99.90
34061;DHT22;20336;-33.424;-70.638;2023-02-26T02:23:52;21.60;99.90
34061;DHT22;20336;-33.424;-70.638;2023-02-26T02:29:11;21.40;99.90
34061;DHT22;20336;-33.424;-70.638;2023-02-26T02:34:45;21.50;99.90
34061;DHT22;20336;-33.424;-70.638;2023-02-26T02:37:21;21.50;99.90
34061;DHT22;20336;-33.424;-70.638;2023-02-26T02:40:02;21.50;99.90
34061;DHT22;20336;-33.424;-70.638;2023-02-26T02:42:34;21.50;99.90
34061;DHT22;20336;-33.424;-70.638;2023-02-26T02:45:09;21.60;99.90
34061;DHT22;20336;-33.424;-70.638;2023-02-26T02:47:40;21.60;99.90
34061;DHT22;20336;-33.424;-70.638;2023-02-26T02:51:00;21.50;99.90
34061;DHT22;20336;-33.424;-70.638;2023-02-26T02:53:09;21.40;99.90
34061;DHT22;20336;-33.424;-70.638;2023-02-26T02:55:45;21.30;99.90
34061;DHT22;20336;-33.424;-70.638;2023-02-26T02:58:17;21.30;99.90
34061;DHT22;20336;-33.424;-70.638;2023-02-26T03:00:50;21.30;99.90
34061;DHT22;20336;-33.424;-70.638;2023-02-26T03:05:58;21.00;99.90
34061;DHT22;20336;-33.424;-70.638;2023-02-26T03:08:31;20.90;99.90
34061;DHT22;20336;-33.424;-70.638;2023-02-26T03:11:00;20.80;99.90
34061;DHT22;20336;-33.424;-70.638;2023-02-26T03:13:27;20.80;99.90
34061;DHT22;20336;-33.424;-70.638;2023-02-26T03:19:06;20.70;99.90
34061;DHT22;20336;-33.424;-70.638;2023-02-26T03:29:44;20.50;99.90
34061;DHT22;20336;-33.424;-70.638;2023-02-26T03:32:29;20.50;99.90
34061;DHT22;20336;-33.424;-70.638;2023-02-26T03:35:32;20.40;99.90
34061;DHT22;20336;-33.424;-70.638;2023-02-26T03:38:05;20.40;99.90
34061;DHT22;20336;-33.424;-70.638;2023-02-26T03:40:46;20.40;99.90
34061;DHT22;20336;-33.424;-70.638;2023-02-26T03:43:35;20.40;99.90
34061;DHT22;20336;-33.424;-70.638;2023-02-26T03:46:06;20.40;99.90
34061;DHT22;20336;-33.424;-70.638;2023-02-26T03:48:36;20.20;99.90
34061;DHT22;20336;-33.424;-70.638;2023-02-26T03:51:07;20.30;99.90
34061;DHT22;20336;-33.424;-70.638;2023-02-26T03:53:52;20.20;99.90
34061;DHT22;20336;-33.424;-70.638;2023-02-26T03:58:57;20.20;99.90
34061;DHT22;20336;-33.424;-70.638;2023-02-26T04:01:55;20.10;99.90
34061;DHT22;20336;-33.424;-70.638;2023-02-26T04:07:08;20.10;99.90
34061;DHT22;20336;-33.424;-70.638;2023-02-26T04:09:39;20.10;99.90
34061;DHT22;20336;-33.424;-70.638;2023-02-26T04:12:07;20.00;99.90
34061;DHT22;20336;-33.424;-70.638;2023-02-26T04:14:34;20.00;99.90
34061;DHT22;20336;-33.424;-70.638;2023-02-26T04:17:01;20.00;99.90
34061;DHT22;20336;-33.424;-70.638;2023-02-26T04:19:28;19.90;99.90
34061;DHT22;20336;-33.424;-70.638;2023-02-26T04:21:54;19.90;99.90
34061;DHT22;20336;-33.424;-70.638;2023-02-26T04:24:21;19.90;99.90
34061;DHT22;20336;-33.424;-70.638;2023-02-26T04:26:48;19.80;99.90
34061;DHT22;20336;-33.424;-70.638;2023-02-26T04:29:15;19.70;99.90
34061;DHT22;20336;-33.424;-70.638;2023-02-26T04:31:42;19.70;99.90
34061;DHT22;20336;-33.424;-70.638;2023-02-26T04:34:08;19.70;99.90
34061;DHT22;20336;-33.424;-70.638;2023-02-26T04:36:35;19.70;99.90
34061;DHT22;20336;-33.424;-70.638;2023-02-26T04:39:02;19.70;99.90
34061;DHT22;20336;-33.424;-70.638;2023-02-26T04:41:29;19.70;99.90
34061;DHT22;20336;-33.424;-70.638;2023-02-26T04:43:56;19.50;99.90
34061;DHT22;20336;-33.424;-70.638;2023-02-26T04:46:23;19.60;99.90
34061;DHT22;20336;-33.424;-70.638;2023-02-26T04:48:50;19.60;99.90
34061;DHT22;20336;-33.424;-70.638;2023-02-26T04:51:17;19.60;99.90
34061;DHT22;20336;-33.424;-70.638;2023-02-26T04:53:43;19.70;99.90
34061;DHT22;20336;-33.424;-70.638;2023-02-26T04:56:10;19.70;99.90
34061;DHT22;20336;-33.424;-70.638;2023-02-26T04:58:37;19.70;99.90
34061;DHT22;20336;-33.424;-70.638;2023-02-26T05:01:04;19.60;99.90
34061;DHT22;20336;-33.424;-70.638;2023-02-26T05:03:31;19.50;99.90
34061;DHT22;20336;-33.424;-70.638;2023-02-26T05:05:58;19.40;99.90
34061;DHT22;20336;-33.424;-70.638;2023-02-26T05:08:25;19.30;99.90
34061;DHT22;20336;-33.424;-70.638;2023-02-26T05:10:52;19.30;99.90
34061;DHT22;20336;-33.424;-70.638;2023-02-26T05:13:19;19.30;99.90
34061;DHT22;20336;-33.424;-70.638;2023-02-26T05:15:46;19.20;99.90
34061;DHT22;20336;-33.424;-70.638;2023-02-26T05:18:13;19.30;99.90
34061;DHT22;20336;-33.424;-70.638;2023-02-26T05:20:40;19.20;99.90
34061;DHT22;20336;-33.424;-70.638;2023-02-26T05:23:06;19.10;99.90
34061;DHT22;20336;-33.424;-70.638;2023-02-26T05:25:33;19.10;99.90
34061;DHT22;20336;-33.424;-70.638;2023-02-26T05:28:00;19.10;99.90
34061;DHT22;20336;-33.424;-70.638;2023-02-26T05:30:27;19.10;99.90
34061;DHT22;20336;-33.424;-70.638;2023-02-26T05:32:54;19.10;99.90
34061;DHT22;20336;-33.424;-70.638;2023-02-26T05:35:20;19.10;99.90
34061;DHT22;20336;-33.424;-70.638;2023-02-26T05:37:47;19.00;99.90
34061;DHT22;20336;-33.424;-70.638;2023-02-26T05:40:14;18.90;99.90
34061;DHT22;20336;-33.424;-70.638;2023-02-26T05:42:41;18.90;99.90
34061;DHT22;20336;-33.424;-70.638;2023-02-26T05:45:08;19.00;99.90
34061;DHT22;20336;-33.424;-70.638;2023-02-26T05:47:35;18.80;99.90
34061;DHT22;20336;-33.424;-70.638;2023-02-26T15:43:23;30.70;99.90
34061;DHT22;20336;-33.424;-70.638;2023-02-26T15:45:53;30.70;99.90
34061;DHT22;20336;-33.424;-70.638;2023-02-26T15:48:34;31.10;99.90
34061;DHT22;20336;-33.424;-70.638;2023-02-26T15:51:10;31.40;99.90
34061;DHT22;20336;-33.424;-70.638;2023-02-26T15:53:47;31.90;99.90
34061;DHT22;20336;-33.424;-70.638;2023-02-26T15:56:19;31.70;99.60
34061;DHT22;20336;-33.424;-70.638;2023-02-26T15:59:12;31.80;98.90
34061;DHT22;20336;-33.424;-70.638;2023-02-26T16:01:42;31.70;99.20
34061;DHT22;20336;-33.424;-70.638;2023-02-26T16:04:17;32.10;99.30
34061;DHT22;20336;-33.424;-70.638;2023-02-26T16:06:52;32.40;97.80
34061;DHT22;20336;-33.424;-70.638;2023-02-26T16:09:30;32.20;97.60
34061;DHT22;20336;-33.424;-70.638;2023-02-26T16:12:06;32.30;97.60
34061;DHT22;20336;-33.424;-70.638;2023-02-26T16:14:37;32.90;96.70
34061;DHT22;20336;-33.424;-70.638;2023-02-26T16:17:06;32.60;95.70
34061;DHT22;20336;-33.424;-70.638;2023-02-26T16:19:37;32.90;95.10
34061;DHT22;20336;-33.424;-70.638;2023-02-26T16:22:23;32.80;94.70
34061;DHT22;20336;-33.424;-70.638;2023-02-26T16:25:11;33.00;93.40
34061;DHT22;20336;-33.424;-70.638;2023-02-26T16:27:40;33.20;93.40
34061;DHT22;20336;-33.424;-70.638;2023-02-26T16:30:17;33.70;91.80
34061;DHT22;20336;-33.424;-70.638;2023-02-26T16:32:51;33.60;91.10
34061;DHT22;20336;-33.424;-70.638;2023-02-26T16:35:21;34.10;90.60
34061;DHT22;20336;-33.424;-70.638;2023-02-26T16:37:53;34.50;88.40
34061;DHT22;20336;-33.424;-70.638;2023-02-26T16:40:25;34.40;88.00
34061;DHT22;20336;-33.424;-70.638;2023-02-26T16:43:01;33.90;86.50
34061;DHT22;20336;-33.424;-70.638;2023-02-26T16:48:13;35.00;81.30
34061;DHT22;20336;-33.424;-70.638;2023-02-26T16:50:40;35.10;81.60
34061;DHT22;20336;-33.424;-70.638;2023-02-26T16:53:12;34.80;80.40
34061;DHT22;20336;-33.424;-70.638;2023-02-26T16:55:49;35.30;80.30
34061;DHT22;20336;-33.424;-70.638;2023-02-26T16:58:17;35.30;78.50
34061;DHT22;20336;-33.424;-70.638;2023-02-26T17:00:46;35.40;77.70
34061;DHT22;20336;-33.424;-70.638;2023-02-26T17:03:18;36.10;76.80
34061;DHT22;20336;-33.424;-70.638;2023-02-26T17:08:21;35.70;74.50
34061;DHT22;20336;-33.424;-70.638;2023-02-26T17:10:54;35.60;74.10
34061;DHT22;20336;-33.424;-70.638;2023-02-26T17:13:30;36.60;73.00
34061;DHT22;20336;-33.424;-70.638;2023-02-26T17:16:07;37.40;72.40
34061;DHT22;20336;-33.424;-70.638;2023-02-26T17:18:34;37.60;72.30
34061;DHT22;20336;-33.424;-70.638;2023-02-26T17:21:02;37.40;70.80
34061;DHT22;20336;-33.424;-70.638;2023-02-26T17:23:36;37.70;70.70
34061;DHT22;20336;-33.424;-70.638;2023-02-26T17:26:04;38.60;69.20
34061;DHT22;20336;-33.424;-70.638;2023-02-26T17:28:33;38.50;68.10
34061;DHT22;20336;-33.424;-70.638;2023-02-26T23:05:33;32.80;60.80
34061;DHT22;20336;-33.424;-70.638;2023-02-26T23:08:00;32.70;61.70
34061;DHT22;20336;-33.424;-70.638;2023-02-26T23:10:28;32.40;62.70
34061;DHT22;20336;-33.424;-70.638;2023-02-26T23:12:55;32.10;63.20
34061;DHT22;20336;-33.424;-70.638;2023-02-26T23:15:25;31.80;64.80
34061;DHT22;20336;-33.424;-70.638;2023-02-26T23:17:53;31.40;64.50
34061;DHT22;20336;-33.424;-70.638;2023-02-26T23:20:20;31.20;65.10
34061;DHT22;20336;-33.424;-70.638;2023-02-26T23:22:46;30.90;65.50
34061;DHT22;20336;-33.424;-70.638;2023-02-26T23:25:13;30.60;66.70
34061;DHT22;20336;-33.424;-70.638;2023-02-26T23:27:40;30.40;66.80
34061;DHT22;20336;-33.424;-70.638;2023-02-26T23:30:08;30.10;67.00
34061;DHT22;20336;-33.424;-70.638;2023-02-26T23:32:36;30.00;67.40
34061;DHT22;20336;-33.424;-70.638;2023-02-26T23:35:03;29.90;67.60
34061;DHT22;20336;-33.424;-70.638;2023-02-26T23:37:30;29.60;68.30
34061;DHT22;20336;-33.424;-70.638;2023-02-26T23:39:57;29.50;68.30
34061;DHT22;20336;-33.424;-70.638;2023-02-26T23:42:24;29.40;68.30
34061;DHT22;20336;-33.424;-70.638;2023-02-26T23:44:51;29.20;68.90
34061;DHT22;20336;-33.424;-70.638;2023-02-26T23:47:21;29.10;69.40
34061;DHT22;20336;-33.424;-70.638;2023-02-26T23:49:48;29.10;69.60
34061;DHT22;20336;-33.424;-70.638;2023-02-26T23:52:15;28.90;70.00
34061;DHT22;20336;-33.424;-70.638;2023-02-26T23:54:43;28.80;70.20
34061;DHT22;20336;-33.424;-70.638;2023-02-26T23:57:09;28.60;70.80
34061;DHT22;20336;-33.424;-70.638;2023-02-26T23:59:36;28.50;70.90
